sensor_id;sensor_type;location;lat;lon;timestamp;P1;durP1;ratioP1;P2;durP2;ratioP2
29370;SDS011;16357;52.188;7.838;2023-04-24T00:00:35;1.05;;;0.90;;
29370;SDS011;16357;52.188;7.838;2023-04-24T00:03:02;1.67;;;0.98;;
29370;SDS011;16357;52.188;7.838;2023-04-24T00:05:29;0.93;;;0.90;;
29370;SDS011;16357;52.188;7.838;2023-04-24T00:07:55;1.85;;;1.00;;
29370;SDS011;16357;52.188;7.838;2023-04-24T00:10:22;1.10;;;0.98;;
29370;SDS011;16357;52.188;7.838;2023-04-24T00:12:48;1.50;;;1.02;;
29370;SDS011;16357;52.188;7.838;2023-04-24T00:15:15;1.85;;;1.13;;
29370;SDS011;16357;52.188;7.838;2023-04-24T00:17:41;1.00;;;1.00;;
29370;SDS011;16357;52.188;7.838;2023-04-24T00:20:08;2.25;;;1.15;;
29370;SDS011;16357;52.188;7.838;2023-04-24T00:22:36;1.33;;;1.00;;
29370;SDS011;16357;52.188;7.838;2023-04-24T00:25:02;1.35;;;1.20;;
29370;SDS011;16357;52.188;7.838;2023-04-24T00:27:29;1.30;;;1.15;;
29370;SDS011;16357;52.188;7.838;2023-04-24T00:29:56;2.63;;;1.05;;
29370;SDS011;16357;52.188;7.838;2023-04-24T00:32:22;1.25;;;0.90;;
29370;SDS011;16357;52.188;7.838;2023-04-24T00:34:48;1.25;;;1.15;;
29370;SDS011;16357;52.188;7.838;2023-04-24T00:37:15;2.67;;;1.20;;
29370;SDS011;16357;52.188;7.838;2023-04-24T00:39:41;1.13;;;0.98;;
29370;SDS011;16357;52.188;7.838;2023-04-24T00:42:09;1.85;;;1.20;;
29370;SDS011;16357;52.188;7.838;2023-04-24T00:44:36;1.75;;;1.10;;
29370;SDS011;16357;52.188;7.838;2023-04-24T00:47:02;1.20;;;1.10;;
29370;SDS011;16357;52.188;7.838;2023-04-24T00:49:29;2.53;;;1.00;;
29370;SDS011;16357;52.188;7.838;2023-04-24T00:51:55;1.33;;;0.90;;
29370;SDS011;16357;52.188;7.838;2023-04-24T00:54:22;1.95;;;1.02;;
29370;SDS011;16357;52.188;7.838;2023-04-24T00:57:02;1.40;;;1.05;;
29370;SDS011;16357;52.188;7.838;2023-04-24T00:59:29;1.33;;;0.73;;
29370;SDS011;16357;52.188;7.838;2023-04-24T01:01:56;1.23;;;1.05;;
29370;SDS011;16357;52.188;7.838;2023-04-24T01:04:24;2.10;;;0.93;;
29370;SDS011;16357;52.188;7.838;2023-04-24T01:06:51;1.45;;;1.17;;
29370;SDS011;16357;52.188;7.838;2023-04-24T01:09:18;2.15;;;0.95;;
29370;SDS011;16357;52.188;7.838;2023-04-24T01:11:47;2.03;;;0.93;;
29370;SDS011;16357;52.188;7.838;2023-04-24T01:14:13;1.75;;;0.90;;
29370;SDS011;16357;52.188;7.838;2023-04-24T01:16:42;1.42;;;1.00;;
29370;SDS011;16357;52.188;7.838;2023-04-24T01:19:08;2.45;;;1.00;;
29370;SDS011;16357;52.188;7.838;2023-04-24T01:21:36;2.00;;;1.00;;
29370;SDS011;16357;52.188;7.838;2023-04-24T01:24:04;3.08;;;1.00;;
29370;SDS011;16357;52.188;7.838;2023-04-24T01:26:32;2.20;;;1.10;;
29370;SDS011;16357;52.188;7.838;2023-04-24T01:28:58;1.48;;;1.02;;
29370;SDS011;16357;52.188;7.838;2023-04-24T01:31:25;1.20;;;0.85;;
29370;SDS011;16357;52.188;7.838;2023-04-24T01:33:52;1.27;;;0.88;;
29370;SDS011;16357;52.188;7.838;2023-04-24T01:36:18;1.00;;;0.80;;
29370;SDS011;16357;52.188;7.838;2023-04-24T01:38:47;1.48;;;0.90;;
29370;SDS011;16357;52.188;7.838;2023-04-24T01:41:13;1.30;;;0.93;;
29370;SDS011;16357;52.188;7.838;2023-04-24T01:43:39;1.92;;;1.00;;
29370;SDS011;16357;52.188;7.838;2023-04-24T01:46:06;2.53;;;1.10;;
29370;SDS011;16357;52.188;7.838;2023-04-24T01:48:33;1.10;;;1.00;;
29370;SDS011;16357;52.188;7.838;2023-04-24T01:50:59;0.98;;;0.90;;
29370;SDS011;16357;52.188;7.838;2023-04-24T01:53:26;1.20;;;1.10;;
29370;SDS011;16357;52.188;7.838;2023-04-24T01:55:52;1.52;;;0.98;;
29370;SDS011;16357;52.188;7.838;2023-04-24T01:58:19;1.10;;;1.00;;
29370;SDS011;16357;52.188;7.838;2023-04-24T02:00:45;1.58;;;1.00;;
29370;SDS011;16357;52.188;7.838;2023-04-24T02:03:12;1.83;;;0.90;;
29370;SDS011;16357;52.188;7.838;2023-04-24T02:05:38;1.73;;;1.00;;
29370;SDS011;16357;52.188;7.838;2023-04-24T02:08:05;1.20;;;0.85;;
29370;SDS011;16357;52.188;7.838;2023-04-24T02:10:31;1.33;;;1.20;;
29370;SDS011;16357;52.188;7.838;2023-04-24T02:12:57;2.20;;;1.25;;
29370;SDS011;16357;52.188;7.838;2023-04-24T02:15:25;2.25;;;1.00;;
29370;SDS011;16357;52.188;7.838;2023-04-24T02:17:52;2.05;;;1.35;;
29370;SDS011;16357;52.188;7.838;2023-04-24T02:20:18;2.28;;;1.38;;
29370;SDS011;16357;52.188;7.838;2023-04-24T02:22:44;1.67;;;1.10;;
29370;SDS011;16357;52.188;7.838;2023-04-24T02:25:11;1.67;;;1.25;;
29370;SDS011;16357;52.188;7.838;2023-04-24T02:27:37;1.77;;;1.05;;
29370;SDS011;16357;52.188;7.838;2023-04-24T02:30:04;1.20;;;1.10;;
29370;SDS011;16357;52.188;7.838;2023-04-24T02:32:31;1.52;;;1.20;;
29370;SDS011;16357;52.188;7.838;2023-04-24T02:34:57;3.00;;;1.20;;
29370;SDS011;16357;52.188;7.838;2023-04-24T02:37:24;1.90;;;1.20;;
29370;SDS011;16357;52.188;7.838;2023-04-24T02:39:50;2.13;;;1.00;;
29370;SDS011;16357;52.188;7.838;2023-04-24T02:42:22;2.25;;;1.15;;
29370;SDS011;16357;52.188;7.838;2023-04-24T02:44:48;3.88;;;1.40;;
29370;SDS011;16357;52.188;7.838;2023-04-24T02:47:16;1.35;;;1.00;;
29370;SDS011;16357;52.188;7.838;2023-04-24T02:49:43;1.83;;;1.13;;
29370;SDS011;16357;52.188;7.838;2023-04-24T02:52:10;1.38;;;1.20;;
29370;SDS011;16357;52.188;7.838;2023-04-24T02:54:36;1.40;;;1.30;;
29370;SDS011;16357;52.188;7.838;2023-04-24T02:57:03;1.25;;;1.10;;
29370;SDS011;16357;52.188;7.838;2023-04-24T02:59:29;2.50;;;1.20;;
29370;SDS011;16357;52.188;7.838;2023-04-24T03:01:56;4.15;;;1.15;;
29370;SDS011;16357;52.188;7.838;2023-04-24T03:04:22;1.77;;;1.27;;
29370;SDS011;16357;52.188;7.838;2023-04-24T03:06:49;2.03;;;1.50;;
29370;SDS011;16357;52.188;7.838;2023-04-24T03:09:17;1.85;;;1.60;;
29370;SDS011;16357;52.188;7.838;2023-04-24T03:11:44;2.80;;;1.50;;
29370;SDS011;16357;52.188;7.838;2023-04-24T03:14:11;1.83;;;1.48;;
29370;SDS011;16357;52.188;7.838;2023-04-24T03:16:37;3.05;;;2.20;;
29370;SDS011;16357;52.188;7.838;2023-04-24T03:19:04;2.25;;;1.85;;
29370;SDS011;16357;52.188;7.838;2023-04-24T03:21:30;2.30;;;1.90;;
29370;SDS011;16357;52.188;7.838;2023-04-24T03:23:56;2.00;;;1.85;;
29370;SDS011;16357;52.188;7.838;2023-04-24T03:26:25;2.50;;;2.03;;
29370;SDS011;16357;52.188;7.838;2023-04-24T03:28:52;3.55;;;1.88;;
29370;SDS011;16357;52.188;7.838;2023-04-24T03:31:18;2.58;;;1.92;;
29370;SDS011;16357;52.188;7.838;2023-04-24T03:33:47;3.20;;;2.22;;
29370;SDS011;16357;52.188;7.838;2023-04-24T03:36:13;3.40;;;2.53;;
29370;SDS011;16357;52.188;7.838;2023-04-24T03:38:39;5.13;;;2.33;;
29370;SDS011;16357;52.188;7.838;2023-04-24T03:41:06;4.82;;;2.83;;
29370;SDS011;16357;52.188;7.838;2023-04-24T03:43:32;3.20;;;2.67;;
29370;SDS011;16357;52.188;7.838;2023-04-24T03:46:00;4.33;;;2.90;;
29370;SDS011;16357;52.188;7.838;2023-04-24T03:48:27;4.47;;;3.20;;
29370;SDS011;16357;52.188;7.838;2023-04-24T03:50:53;3.88;;;3.47;;
29370;SDS011;16357;52.188;7.838;2023-04-24T03:53:20;4.90;;;4.38;;
29370;SDS011;16357;52.188;7.838;2023-04-24T03:55:46;5.32;;;4.75;;
29370;SDS011;16357;52.188;7.838;2023-04-24T03:58:13;5.55;;;4.82;;
29370;SDS011;16357;52.188;7.838;2023-04-24T04:00:42;5.72;;;5.10;;
29370;SDS011;16357;52.188;7.838;2023-04-24T04:03:10;6.07;;;5.07;;
29370;SDS011;16357;52.188;7.838;2023-04-24T04:05:37;8.63;;;6.10;;
29370;SDS011;16357;52.188;7.838;2023-04-24T04:08:03;8.68;;;6.38;;
29370;SDS011;16357;52.188;7.838;2023-04-24T04:10:30;8.70;;;6.90;;
29370;SDS011;16357;52.188;7.838;2023-04-24T04:12:56;7.75;;;6.47;;
29370;SDS011;16357;52.188;7.838;2023-04-24T04:15:23;8.60;;;6.65;;
29370;SDS011;16357;52.188;7.838;2023-04-24T04:17:49;8.10;;;6.53;;
29370;SDS011;16357;52.188;7.838;2023-04-24T04:20:16;9.90;;;6.93;;
29370;SDS011;16357;52.188;7.838;2023-04-24T04:22:42;8.38;;;6.90;;
29370;SDS011;16357;52.188;7.838;2023-04-24T04:25:09;8.75;;;6.90;;
29370;SDS011;16357;52.188;7.838;2023-04-24T04:27:38;7.72;;;6.85;;
29370;SDS011;16357;52.188;7.838;2023-04-24T04:30:07;8.20;;;7.03;;
29370;SDS011;16357;52.188;7.838;2023-04-24T04:32:35;9.00;;;7.10;;
29370;SDS011;16357;52.188;7.838;2023-04-24T04:35:02;9.02;;;7.75;;
29370;SDS011;16357;52.188;7.838;2023-04-24T04:37:32;9.38;;;7.53;;
29370;SDS011;16357;52.188;7.838;2023-04-24T04:39:59;8.13;;;6.82;;
29370;SDS011;16357;52.188;7.838;2023-04-24T04:42:26;9.55;;;7.38;;
29370;SDS011;16357;52.188;7.838;2023-04-24T04:44:55;8.63;;;7.43;;
29370;SDS011;16357;52.188;7.838;2023-04-24T04:47:23;9.90;;;7.65;;
29370;SDS011;16357;52.188;7.838;2023-04-24T04:49:50;9.35;;;7.85;;
29370;SDS011;16357;52.188;7.838;2023-04-24T04:52:19;10.95;;;7.90;;
29370;SDS011;16357;52.188;7.838;2023-04-24T04:54:46;10.52;;;8.32;;
29370;SDS011;16357;52.188;7.838;2023-04-24T04:57:12;9.45;;;7.72;;
29370;SDS011;16357;52.188;7.838;2023-04-24T04:59:39;13.55;;;8.40;;
29370;SDS011;16357;52.188;7.838;2023-04-24T05:02:07;10.88;;;8.43;;
29370;SDS011;16357;52.188;7.838;2023-04-24T05:04:34;11.05;;;8.00;;
29370;SDS011;16357;52.188;7.838;2023-04-24T05:07:01;11.13;;;8.25;;
29370;SDS011;16357;52.188;7.838;2023-04-24T05:09:27;10.23;;;8.38;;
29370;SDS011;16357;52.188;7.838;2023-04-24T05:11:55;11.88;;;8.35;;
29370;SDS011;16357;52.188;7.838;2023-04-24T05:14:22;11.88;;;9.13;;
29370;SDS011;16357;52.188;7.838;2023-04-24T05:16:48;9.70;;;8.52;;
29370;SDS011;16357;52.188;7.838;2023-04-24T05:19:15;13.23;;;9.32;;
29370;SDS011;16357;52.188;7.838;2023-04-24T05:21:41;11.63;;;8.88;;
29370;SDS011;16357;52.188;7.838;2023-04-24T05:24:08;12.88;;;9.57;;
29370;SDS011;16357;52.188;7.838;2023-04-24T05:26:34;11.98;;;9.02;;
29370;SDS011;16357;52.188;7.838;2023-04-24T05:29:01;12.95;;;10.18;;
29370;SDS011;16357;52.188;7.838;2023-04-24T05:31:28;13.70;;;9.80;;
29370;SDS011;16357;52.188;7.838;2023-04-24T05:33:55;13.93;;;10.85;;
29370;SDS011;16357;52.188;7.838;2023-04-24T05:36:21;14.68;;;11.00;;
29370;SDS011;16357;52.188;7.838;2023-04-24T05:38:47;20.83;;;11.30;;
29370;SDS011;16357;52.188;7.838;2023-04-24T05:41:14;15.82;;;11.15;;
29370;SDS011;16357;52.188;7.838;2023-04-24T05:43:41;14.40;;;10.82;;
29370;SDS011;16357;52.188;7.838;2023-04-24T05:46:07;13.80;;;11.27;;
29370;SDS011;16357;52.188;7.838;2023-04-24T05:48:33;16.05;;;11.65;;
29370;SDS011;16357;52.188;7.838;2023-04-24T05:51:00;16.83;;;11.63;;
29370;SDS011;16357;52.188;7.838;2023-04-24T05:53:26;18.13;;;11.25;;
29370;SDS011;16357;52.188;7.838;2023-04-24T05:55:53;14.73;;;11.75;;
29370;SDS011;16357;52.188;7.838;2023-04-24T05:58:19;16.02;;;12.50;;
29370;SDS011;16357;52.188;7.838;2023-04-24T06:00:45;14.07;;;11.80;;
29370;SDS011;16357;52.188;7.838;2023-04-24T06:03:12;18.65;;;12.68;;
29370;SDS011;16357;52.188;7.838;2023-04-24T06:05:39;17.33;;;12.50;;
29370;SDS011;16357;52.188;7.838;2023-04-24T06:08:06;18.23;;;12.55;;
29370;SDS011;16357;52.188;7.838;2023-04-24T06:10:32;17.80;;;12.32;;
29370;SDS011;16357;52.188;7.838;2023-04-24T06:12:59;15.13;;;12.00;;
29370;SDS011;16357;52.188;7.838;2023-04-24T06:15:29;15.82;;;11.73;;
29370;SDS011;16357;52.188;7.838;2023-04-24T06:17:57;15.82;;;12.07;;
29370;SDS011;16357;52.188;7.838;2023-04-24T06:20:23;17.50;;;12.85;;
29370;SDS011;16357;52.188;7.838;2023-04-24T06:22:50;17.63;;;12.68;;
29370;SDS011;16357;52.188;7.838;2023-04-24T06:25:16;19.08;;;12.82;;
29370;SDS011;16357;52.188;7.838;2023-04-24T06:27:43;19.17;;;12.15;;
29370;SDS011;16357;52.188;7.838;2023-04-24T06:30:09;15.95;;;12.77;;
29370;SDS011;16357;52.188;7.838;2023-04-24T06:32:36;15.32;;;12.13;;
29370;SDS011;16357;52.188;7.838;2023-04-24T06:35:03;17.58;;;12.35;;
29370;SDS011;16357;52.188;7.838;2023-04-24T06:37:30;17.58;;;12.75;;
29370;SDS011;16357;52.188;7.838;2023-04-24T06:39:58;17.23;;;12.43;;
29370;SDS011;16357;52.188;7.838;2023-04-24T06:42:24;13.43;;;11.10;;
29370;SDS011;16357;52.188;7.838;2023-04-24T06:44:51;15.18;;;11.20;;
29370;SDS011;16357;52.188;7.838;2023-04-24T06:47:19;14.95;;;10.95;;
29370;SDS011;16357;52.188;7.838;2023-04-24T06:49:46;16.58;;;11.48;;
29370;SDS011;16357;52.188;7.838;2023-04-24T06:52:12;14.52;;;10.80;;
29370;SDS011;16357;52.188;7.838;2023-04-24T06:54:39;17.38;;;10.48;;
29370;SDS011;16357;52.188;7.838;2023-04-24T06:57:05;14.90;;;10.70;;
29370;SDS011;16357;52.188;7.838;2023-04-24T06:59:37;15.73;;;10.68;;
29370;SDS011;16357;52.188;7.838;2023-04-24T07:02:04;14.95;;;10.75;;
29370;SDS011;16357;52.188;7.838;2023-04-24T07:04:31;13.02;;;10.20;;
29370;SDS011;16357;52.188;7.838;2023-04-24T07:07:03;11.70;;;10.50;;
29370;SDS011;16357;52.188;7.838;2023-04-24T07:09:32;13.88;;;10.73;;
29370;SDS011;16357;52.188;7.838;2023-04-24T07:11:58;15.10;;;10.50;;
29370;SDS011;16357;52.188;7.838;2023-04-24T07:14:27;13.02;;;10.38;;
29370;SDS011;16357;52.188;7.838;2023-04-24T07:20:22;13.60;;;10.00;;
29370;SDS011;16357;52.188;7.838;2023-04-24T07:22:48;12.55;;;10.30;;
29370;SDS011;16357;52.188;7.838;2023-04-24T07:25:15;12.68;;;10.40;;
29370;SDS011;16357;52.188;7.838;2023-04-24T07:27:42;15.63;;;9.68;;
29370;SDS011;16357;52.188;7.838;2023-04-24T07:30:14;15.10;;;9.50;;
29370;SDS011;16357;52.188;7.838;2023-04-24T07:32:41;11.43;;;9.73;;
29370;SDS011;16357;52.188;7.838;2023-04-24T07:35:07;12.77;;;9.48;;
29370;SDS011;16357;52.188;7.838;2023-04-24T07:37:36;11.93;;;9.68;;
29370;SDS011;16357;52.188;7.838;2023-04-24T07:40:06;12.90;;;9.75;;
29370;SDS011;16357;52.188;7.838;2023-04-24T07:42:36;11.63;;;9.35;;
29370;SDS011;16357;52.188;7.838;2023-04-24T07:45:03;11.35;;;8.57;;
29370;SDS011;16357;52.188;7.838;2023-04-24T07:47:29;12.15;;;9.38;;
29370;SDS011;16357;52.188;7.838;2023-04-24T07:49:56;11.57;;;8.73;;
29370;SDS011;16357;52.188;7.838;2023-04-24T07:52:23;10.63;;;8.05;;
29370;SDS011;16357;52.188;7.838;2023-04-24T07:54:52;10.98;;;8.73;;
29370;SDS011;16357;52.188;7.838;2023-04-24T07:57:24;10.55;;;8.45;;
29370;SDS011;16357;52.188;7.838;2023-04-24T07:59:51;9.30;;;8.27;;
29370;SDS011;16357;52.188;7.838;2023-04-24T08:02:20;10.73;;;8.25;;
29370;SDS011;16357;52.188;7.838;2023-04-24T08:04:52;11.18;;;7.68;;
29370;SDS011;16357;52.188;7.838;2023-04-24T08:07:20;9.98;;;7.75;;
29370;SDS011;16357;52.188;7.838;2023-04-24T08:09:47;9.18;;;7.90;;
29370;SDS011;16357;52.188;7.838;2023-04-24T08:12:13;9.98;;;7.75;;
29370;SDS011;16357;52.188;7.838;2023-04-24T08:14:40;8.60;;;7.60;;
29370;SDS011;16357;52.188;7.838;2023-04-24T08:17:06;9.93;;;7.25;;
29370;SDS011;16357;52.188;7.838;2023-04-24T08:19:33;9.07;;;7.55;;
29370;SDS011;16357;52.188;7.838;2023-04-24T08:21:59;8.07;;;7.07;;
29370;SDS011;16357;52.188;7.838;2023-04-24T08:24:26;7.40;;;6.22;;
29370;SDS011;16357;52.188;7.838;2023-04-24T08:26:53;7.90;;;6.07;;
29370;SDS011;16357;52.188;7.838;2023-04-24T08:29:20;7.47;;;5.95;;
29370;SDS011;16357;52.188;7.838;2023-04-24T08:31:47;6.50;;;5.82;;
29370;SDS011;16357;52.188;7.838;2023-04-24T08:34:13;6.68;;;5.97;;
29370;SDS011;16357;52.188;7.838;2023-04-24T08:36:49;6.68;;;5.65;;
29370;SDS011;16357;52.188;7.838;2023-04-24T08:39:16;9.88;;;6.03;;
29370;SDS011;16357;52.188;7.838;2023-04-24T08:41:43;7.43;;;5.70;;
29370;SDS011;16357;52.188;7.838;2023-04-24T08:44:11;5.95;;;5.32;;
29370;SDS011;16357;52.188;7.838;2023-04-24T08:46:40;6.38;;;5.50;;
29370;SDS011;16357;52.188;7.838;2023-04-24T08:49:07;6.43;;;5.22;;
29370;SDS011;16357;52.188;7.838;2023-04-24T08:51:33;6.28;;;5.32;;
29370;SDS011;16357;52.188;7.838;2023-04-24T08:54:00;5.55;;;4.97;;
29370;SDS011;16357;52.188;7.838;2023-04-24T08:56:29;6.07;;;5.30;;
29370;SDS011;16357;52.188;7.838;2023-04-24T08:59:05;5.95;;;5.28;;
29370;SDS011;16357;52.188;7.838;2023-04-24T09:01:32;8.10;;;4.95;;
29370;SDS011;16357;52.188;7.838;2023-04-24T09:04:02;5.88;;;4.65;;
29370;SDS011;16357;52.188;7.838;2023-04-24T09:09:35;5.05;;;4.55;;
29370;SDS011;16357;52.188;7.838;2023-04-24T09:12:03;5.75;;;4.68;;
29370;SDS011;16357;52.188;7.838;2023-04-24T09:14:30;4.85;;;4.22;;
29370;SDS011;16357;52.188;7.838;2023-04-24T09:17:02;5.72;;;4.22;;
29370;SDS011;16357;52.188;7.838;2023-04-24T09:19:29;4.80;;;4.28;;
29370;SDS011;16357;52.188;7.838;2023-04-24T09:21:55;5.95;;;4.90;;
29370;SDS011;16357;52.188;7.838;2023-04-24T09:24:22;4.68;;;4.10;;
29370;SDS011;16357;52.188;7.838;2023-04-24T09:26:49;4.38;;;3.90;;
29370;SDS011;16357;52.188;7.838;2023-04-24T09:29:27;4.65;;;3.97;;
29370;SDS011;16357;52.188;7.838;2023-04-24T09:31:54;5.05;;;3.80;;
29370;SDS011;16357;52.188;7.838;2023-04-24T09:34:22;4.97;;;4.10;;
29370;SDS011;16357;52.188;7.838;2023-04-24T09:36:52;5.95;;;4.28;;
29370;SDS011;16357;52.188;7.838;2023-04-24T09:39:29;5.25;;;4.15;;
29370;SDS011;16357;52.188;7.838;2023-04-24T09:41:56;4.90;;;4.25;;
29370;SDS011;16357;52.188;7.838;2023-04-24T09:44:34;5.22;;;4.10;;
29370;SDS011;16357;52.188;7.838;2023-04-24T09:47:00;4.35;;;3.95;;
29370;SDS011;16357;52.188;7.838;2023-04-24T09:49:30;5.35;;;4.18;;
29370;SDS011;16357;52.188;7.838;2023-04-24T09:52:05;4.18;;;3.72;;
29370;SDS011;16357;52.188;7.838;2023-04-24T09:54:32;4.15;;;3.55;;
29370;SDS011;16357;52.188;7.838;2023-04-24T09:56:59;4.38;;;3.90;;
29370;SDS011;16357;52.188;7.838;2023-04-24T09:59:28;4.47;;;3.67;;
29370;SDS011;16357;52.188;7.838;2023-04-24T10:01:55;3.55;;;3.25;;
29370;SDS011;16357;52.188;7.838;2023-04-24T10:04:24;4.50;;;3.22;;
29370;SDS011;16357;52.188;7.838;2023-04-24T10:06:54;5.00;;;3.25;;
29370;SDS011;16357;52.188;7.838;2023-04-24T10:09:23;3.45;;;2.80;;
29370;SDS011;16357;52.188;7.838;2023-04-24T10:11:51;2.83;;;2.40;;
29370;SDS011;16357;52.188;7.838;2023-04-24T10:14:20;3.55;;;2.42;;
29370;SDS011;16357;52.188;7.838;2023-04-24T10:16:48;2.47;;;2.28;;
29370;SDS011;16357;52.188;7.838;2023-04-24T10:19:16;5.07;;;2.80;;
29370;SDS011;16357;52.188;7.838;2023-04-24T10:21:45;2.33;;;2.13;;
29370;SDS011;16357;52.188;7.838;2023-04-24T10:24:14;2.42;;;2.22;;
29370;SDS011;16357;52.188;7.838;2023-04-24T10:26:43;2.05;;;1.75;;
29370;SDS011;16357;52.188;7.838;2023-04-24T10:29:11;2.35;;;1.65;;
29370;SDS011;16357;52.188;7.838;2023-04-24T10:31:38;1.90;;;1.70;;
29370;SDS011;16357;52.188;7.838;2023-04-24T10:34:06;1.40;;;1.30;;
29370;SDS011;16357;52.188;7.838;2023-04-24T10:36:33;2.80;;;1.13;;
29370;SDS011;16357;52.188;7.838;2023-04-24T10:39:02;1.05;;;0.93;;
29370;SDS011;16357;52.188;7.838;2023-04-24T10:41:32;1.42;;;1.20;;
29370;SDS011;16357;52.188;7.838;2023-04-24T10:44:08;1.98;;;1.23;;
29370;SDS011;16357;52.188;7.838;2023-04-24T10:46:42;0.80;;;0.80;;
29370;SDS011;16357;52.188;7.838;2023-04-24T10:49:10;1.55;;;0.82;;
29370;SDS011;16357;52.188;7.838;2023-04-24T10:51:50;1.40;;;0.85;;
29370;SDS011;16357;52.188;7.838;2023-04-24T10:54:29;1.45;;;1.00;;
29370;SDS011;16357;52.188;7.838;2023-04-24T10:59:45;1.13;;;0.82;;
29370;SDS011;16357;52.188;7.838;2023-04-24T11:02:16;1.30;;;0.95;;
29370;SDS011;16357;52.188;7.838;2023-04-24T11:04:44;1.30;;;1.00;;
29370;SDS011;16357;52.188;7.838;2023-04-24T11:07:11;1.92;;;1.58;;
29370;SDS011;16357;52.188;7.838;2023-04-24T11:09:38;3.97;;;1.60;;
29370;SDS011;16357;52.188;7.838;2023-04-24T11:12:09;3.55;;;2.15;;
29370;SDS011;16357;52.188;7.838;2023-04-24T11:17:32;4.37;;;3.27;;
29370;SDS011;16357;52.188;7.838;2023-04-24T11:20:05;5.15;;;3.33;;
29370;SDS011;16357;52.188;7.838;2023-04-24T11:22:53;6.68;;;3.90;;
29370;SDS011;16357;52.188;7.838;2023-04-24T11:25:21;6.47;;;4.38;;
29370;SDS011;16357;52.188;7.838;2023-04-24T11:27:52;5.82;;;4.15;;
29370;SDS011;16357;52.188;7.838;2023-04-24T11:30:29;6.35;;;4.25;;
29370;SDS011;16357;52.188;7.838;2023-04-24T11:33:01;6.72;;;4.32;;
29370;SDS011;16357;52.188;7.838;2023-04-24T11:35:29;6.20;;;4.47;;
29370;SDS011;16357;52.188;7.838;2023-04-24T11:38:02;6.57;;;4.85;;
29370;SDS011;16357;52.188;7.838;2023-04-24T11:40:49;7.53;;;4.25;;
29370;SDS011;16357;52.188;7.838;2023-04-24T11:43:16;8.40;;;4.22;;
29370;SDS011;16357;52.188;7.838;2023-04-24T11:45:48;7.65;;;4.50;;
29370;SDS011;16357;52.188;7.838;2023-04-24T11:48:18;5.43;;;3.90;;
29370;SDS011;16357;52.188;7.838;2023-04-24T11:50:48;6.90;;;4.32;;
29370;SDS011;16357;52.188;7.838;2023-04-24T11:53:15;7.10;;;4.38;;
29370;SDS011;16357;52.188;7.838;2023-04-24T11:55:41;6.10;;;4.00;;
29370;SDS011;16357;52.188;7.838;2023-04-24T11:58:07;5.18;;;3.92;;
29370;SDS011;16357;52.188;7.838;2023-04-24T12:00:34;8.30;;;4.65;;
29370;SDS011;16357;52.188;7.838;2023-04-24T12:03:10;8.43;;;4.22;;
29370;SDS011;16357;52.188;7.838;2023-04-24T12:05:38;7.40;;;4.60;;
29370;SDS011;16357;52.188;7.838;2023-04-24T12:08:05;7.13;;;4.72;;
29370;SDS011;16357;52.188;7.838;2023-04-24T12:10:32;8.25;;;4.88;;
29370;SDS011;16357;52.188;7.838;2023-04-24T12:13:00;6.63;;;4.35;;
29370;SDS011;16357;52.188;7.838;2023-04-24T12:15:27;6.45;;;4.20;;
29370;SDS011;16357;52.188;7.838;2023-04-24T12:17:55;6.15;;;3.97;;
29370;SDS011;16357;52.188;7.838;2023-04-24T12:20:29;7.20;;;3.90;;
29370;SDS011;16357;52.188;7.838;2023-04-24T12:22:57;5.63;;;3.47;;
29370;SDS011;16357;52.188;7.838;2023-04-24T12:25:26;8.50;;;3.40;;
29370;SDS011;16357;52.188;7.838;2023-04-24T12:30:30;6.07;;;3.00;;
29370;SDS011;16357;52.188;7.838;2023-04-24T12:32:58;5.75;;;2.95;;
29370;SDS011;16357;52.188;7.838;2023-04-24T12:35:30;6.15;;;2.70;;
29370;SDS011;16357;52.188;7.838;2023-04-24T12:38:09;7.00;;;2.80;;
29370;SDS011;16357;52.188;7.838;2023-04-24T12:40:38;4.75;;;2.50;;
29370;SDS011;16357;52.188;7.838;2023-04-24T12:43:18;6.13;;;3.28;;
29370;SDS011;16357;52.188;7.838;2023-04-24T12:45:45;6.53;;;2.72;;
29370;SDS011;16357;52.188;7.838;2023-04-24T12:48:14;6.97;;;2.60;;
29370;SDS011;16357;52.188;7.838;2023-04-24T12:50:41;4.68;;;2.40;;
29370;SDS011;16357;52.188;7.838;2023-04-24T12:53:12;5.40;;;2.88;;
29370;SDS011;16357;52.188;7.838;2023-04-24T12:55:38;6.55;;;3.05;;
29370;SDS011;16357;52.188;7.838;2023-04-24T12:58:05;4.85;;;2.80;;
29370;SDS011;16357;52.188;7.838;2023-04-24T13:00:32;5.05;;;2.67;;
29370;SDS011;16357;52.188;7.838;2023-04-24T13:02:58;9.30;;;3.25;;
29370;SDS011;16357;52.188;7.838;2023-04-24T13:05:25;8.68;;;3.05;;
29370;SDS011;16357;52.188;7.838;2023-04-24T13:07:52;9.05;;;3.03;;
29370;SDS011;16357;52.188;7.838;2023-04-24T13:10:18;7.00;;;3.28;;
29370;SDS011;16357;52.188;7.838;2023-04-24T13:12:45;9.73;;;3.47;;
29370;SDS011;16357;52.188;7.838;2023-04-24T13:15:12;9.43;;;3.60;;
29370;SDS011;16357;52.188;7.838;2023-04-24T13:17:39;9.45;;;3.38;;
29370;SDS011;16357;52.188;7.838;2023-04-24T13:20:06;11.52;;;3.78;;
29370;SDS011;16357;52.188;7.838;2023-04-24T13:22:33;10.35;;;3.60;;
29370;SDS011;16357;52.188;7.838;2023-04-24T13:24:59;8.40;;;3.50;;
29370;SDS011;16357;52.188;7.838;2023-04-24T13:27:27;6.47;;;3.10;;
29370;SDS011;16357;52.188;7.838;2023-04-24T13:29:53;7.65;;;3.95;;
29370;SDS011;16357;52.188;7.838;2023-04-24T13:32:20;7.97;;;3.30;;
29370;SDS011;16357;52.188;7.838;2023-04-24T13:34:46;7.30;;;3.40;;
29370;SDS011;16357;52.188;7.838;2023-04-24T13:37:13;5.88;;;2.92;;
29370;SDS011;16357;52.188;7.838;2023-04-24T13:39:39;9.88;;;3.53;;
29370;SDS011;16357;52.188;7.838;2023-04-24T13:42:07;6.82;;;3.00;;
29370;SDS011;16357;52.188;7.838;2023-04-24T13:44:34;5.10;;;2.80;;
29370;SDS011;16357;52.188;7.838;2023-04-24T13:47:00;6.28;;;2.90;;
29370;SDS011;16357;52.188;7.838;2023-04-24T13:49:28;7.35;;;2.83;;
29370;SDS011;16357;52.188;7.838;2023-04-24T13:51:55;5.13;;;2.40;;
29370;SDS011;16357;52.188;7.838;2023-04-24T13:54:22;14.07;;;3.30;;
29370;SDS011;16357;52.188;7.838;2023-04-24T13:56:51;7.15;;;2.63;;
29370;SDS011;16357;52.188;7.838;2023-04-24T13:59:19;8.18;;;2.83;;
29370;SDS011;16357;52.188;7.838;2023-04-24T14:01:46;6.47;;;3.22;;
29370;SDS011;16357;52.188;7.838;2023-04-24T14:04:14;8.00;;;3.00;;
29370;SDS011;16357;52.188;7.838;2023-04-24T14:06:40;5.78;;;3.03;;
29370;SDS011;16357;52.188;7.838;2023-04-24T14:09:07;10.25;;;2.88;;
29370;SDS011;16357;52.188;7.838;2023-04-24T14:11:34;6.80;;;2.85;;
29370;SDS011;16357;52.188;7.838;2023-04-24T14:14:01;7.10;;;3.83;;
29370;SDS011;16357;52.188;7.838;2023-04-24T14:16:28;10.63;;;4.43;;
29370;SDS011;16357;52.188;7.838;2023-04-24T14:18:54;9.48;;;3.65;;
29370;SDS011;16357;52.188;7.838;2023-04-24T14:21:22;11.27;;;3.85;;
29370;SDS011;16357;52.188;7.838;2023-04-24T14:23:48;8.25;;;3.15;;
29370;SDS011;16357;52.188;7.838;2023-04-24T14:26:15;7.38;;;3.50;;
29370;SDS011;16357;52.188;7.838;2023-04-24T14:28:41;6.10;;;3.20;;
29370;SDS011;16357;52.188;7.838;2023-04-24T14:31:07;5.75;;;3.10;;
29370;SDS011;16357;52.188;7.838;2023-04-24T14:33:35;9.98;;;3.33;;
29370;SDS011;16357;52.188;7.838;2023-04-24T14:36:02;5.90;;;2.90;;
29370;SDS011;16357;52.188;7.838;2023-04-24T14:38:30;5.95;;;3.25;;
29370;SDS011;16357;52.188;7.838;2023-04-24T14:40:57;9.27;;;3.28;;
29370;SDS011;16357;52.188;7.838;2023-04-24T14:43:33;12.50;;;3.58;;
29370;SDS011;16357;52.188;7.838;2023-04-24T14:46:01;4.15;;;2.70;;
29370;SDS011;16357;52.188;7.838;2023-04-24T14:48:28;6.20;;;2.60;;
29370;SDS011;16357;52.188;7.838;2023-04-24T14:50:54;4.72;;;2.70;;
29370;SDS011;16357;52.188;7.838;2023-04-24T14:53:20;3.67;;;2.30;;
29370;SDS011;16357;52.188;7.838;2023-04-24T14:55:47;4.00;;;2.05;;
29370;SDS011;16357;52.188;7.838;2023-04-24T14:58:13;3.70;;;2.30;;
29370;SDS011;16357;52.188;7.838;2023-04-24T15:00:40;5.68;;;2.40;;